createdAt,value
2023-05-22T00:00:08.134Z,94853.00
2023-05-22T00:01:08.133Z,94852.00
2023-05-22T00:02:08.213Z,94852.00
2023-05-22T00:03:08.209Z,94852.00
2023-05-22T00:04:08.168Z,94848.00
2023-05-22T00:05:08.192Z,94850.00
2023-05-22T00:06:08.196Z,94848.00
2023-05-22T00:07:08.189Z,94850.00
2023-05-22T00:08:08.197Z,94850.00
2023-05-22T00:09:08.185Z,94852.00
2023-05-22T00:10:08.158Z,94855.00
2023-05-22T00:11:08.170Z,94850.00
2023-05-22T00:12:08.169Z,94848.00
2023-05-22T00:13:08.165Z,94850.00
2023-05-22T00:14:08.152Z,94850.00
2023-05-22T00:15:08.196Z,94848.00
2023-05-22T00:16:08.166Z,94846.00
2023-05-22T00:17:08.248Z,94846.00
2023-05-22T00:18:08.290Z,94838.00
2023-05-22T00:19:08.191Z,94836.00
2023-05-22T00:20:08.263Z,94838.00
2023-05-22T00:21:08.201Z,94838.00
2023-05-22T00:22:08.195Z,94842.00
2023-05-22T00:23:08.196Z,94846.00
2023-05-22T00:24:08.191Z,94846.00
2023-05-22T00:25:08.219Z,94844.00
2023-05-22T00:26:08.182Z,94842.00
2023-05-22T00:27:08.200Z,94838.00
2023-05-22T00:28:08.239Z,94840.00
2023-05-22T00:29:08.218Z,94840.00
2023-05-22T00:30:08.228Z,94842.00
2023-05-22T00:31:08.260Z,94846.00
2023-05-22T00:32:08.229Z,94848.00
2023-05-22T00:33:08.304Z,94846.00
2023-05-22T00:34:08.360Z,94846.00
2023-05-22T00:35:08.299Z,94844.00
2023-05-22T00:36:08.269Z,94846.00
2023-05-22T00:37:08.371Z,94848.00
2023-05-22T00:38:08.271Z,94846.00
2023-05-22T00:39:08.279Z,94848.00
2023-05-22T00:40:08.292Z,94848.00
2023-05-22T00:41:08.309Z,94848.00
2023-05-22T00:42:08.282Z,94846.00
2023-05-22T00:43:08.498Z,94844.00
2023-05-22T00:44:08.273Z,94840.00
2023-05-22T00:45:08.282Z,94842.00
2023-05-22T00:46:08.297Z,94840.00
2023-05-22T00:47:08.258Z,94844.00
2023-05-22T00:48:08.374Z,94844.00
2023-05-22T00:49:08.330Z,94846.00
2023-05-22T00:50:08.305Z,94846.00
2023-05-22T00:51:08.304Z,94842.00
2023-05-22T00:52:08.294Z,94840.00
2023-05-22T00:53:08.328Z,94842.00
2023-05-22T00:54:08.309Z,94844.00
2023-05-22T00:55:08.303Z,94844.00
2023-05-22T00:56:08.327Z,94844.00
2023-05-22T00:57:08.352Z,94844.00
2023-05-22T00:58:08.319Z,94850.00
2023-05-22T00:59:08.357Z,94848.00
2023-05-22T01:00:08.324Z,94848.00
2023-05-22T01:01:08.344Z,94850.00
2023-05-22T01:02:08.426Z,94850.00
2023-05-22T01:03:08.429Z,94850.00
2023-05-22T01:04:08.456Z,94850.00
2023-05-22T01:05:08.350Z,94846.00
2023-05-22T01:06:08.357Z,94850.00
2023-05-22T01:07:08.374Z,94848.00
2023-05-22T01:08:08.404Z,94850.00
2023-05-22T01:09:08.413Z,94852.00
2023-05-22T01:10:08.405Z,94852.00
2023-05-22T01:11:08.417Z,94852.00
2023-05-22T01:12:08.440Z,94852.00
2023-05-22T01:13:08.470Z,94852.00
2023-05-22T01:14:08.487Z,94853.00
2023-05-22T01:15:08.483Z,94846.00
2023-05-22T01:16:08.598Z,94846.00
2023-05-22T01:17:08.495Z,94844.00
2023-05-22T01:18:08.561Z,94846.00
2023-05-22T01:19:08.575Z,94848.00
2023-05-22T01:20:08.554Z,94850.00
2023-05-22T01:21:08.599Z,94853.00
2023-05-22T01:22:08.635Z,94857.00
2023-05-22T01:23:08.651Z,94859.00
2023-05-22T01:24:08.611Z,94857.00
2023-05-22T01:25:08.626Z,94855.00
2023-05-22T01:26:08.658Z,94853.00
2023-05-22T01:27:08.641Z,94857.00
2023-05-22T01:28:08.658Z,94855.00
2023-05-22T01:29:08.638Z,94855.00
2023-05-22T01:30:08.676Z,94857.00
2023-05-22T01:31:08.679Z,94859.00
2023-05-22T01:32:08.697Z,94859.00
2023-05-22T01:33:08.781Z,94861.00
2023-05-22T01:34:08.715Z,94859.00
2023-05-22T01:35:08.684Z,94863.00
2023-05-22T01:36:08.680Z,94859.00
2023-05-22T01:37:08.715Z,94861.00
2023-05-22T01:38:08.725Z,94863.00
2023-05-22T01:39:08.737Z,94865.00
2023-05-22T01:40:08.723Z,94865.00
2023-05-22T01:41:08.730Z,94867.00
2023-05-22T01:42:08.714Z,94867.00
2023-05-22T01:43:08.740Z,94869.00
2023-05-22T01:44:08.739Z,94871.00
2023-05-22T01:45:08.752Z,94867.00
2023-05-22T01:46:08.733Z,94873.00
2023-05-22T01:47:08.692Z,94869.00
2023-05-22T01:48:08.790Z,94869.00
2023-05-22T01:49:08.750Z,94867.00
2023-05-22T01:50:08.807Z,94871.00
2023-05-22T01:51:08.758Z,94873.00
2023-05-22T01:52:08.741Z,94873.00
2023-05-22T01:53:08.768Z,94877.00
2023-05-22T01:54:08.744Z,94875.00
2023-05-22T01:55:08.744Z,94877.00
2023-05-22T01:56:08.735Z,94879.00
2023-05-22T01:57:08.769Z,94877.00
2023-05-22T01:58:08.778Z,94877.00
2023-05-22T01:59:08.828Z,94881.00
2023-05-22T02:00:08.874Z,94879.00
2023-05-22T02:01:09.283Z,94875.00
2023-05-22T02:02:08.980Z,94879.00
2023-05-22T02:03:09.125Z,94879.00
2023-05-22T02:04:09.084Z,94879.00
2023-05-22T02:05:09.106Z,94881.00
2023-05-22T02:06:09.142Z,94881.00
2023-05-22T02:07:10.741Z,94881.00
2023-05-22T02:08:09.158Z,94881.00
2023-05-22T02:09:09.189Z,94883.00
2023-05-22T02:10:09.156Z,94883.00
2023-05-22T02:11:09.167Z,94885.00
2023-05-22T02:12:09.154Z,94887.00
2023-05-22T02:13:09.155Z,94887.00
2023-05-22T02:14:09.117Z,94883.00
2023-05-22T02:15:09.875Z,94885.00
2023-05-22T02:16:09.129Z,94885.00
2023-05-22T02:17:09.110Z,94883.00
2023-05-22T02:18:09.145Z,94881.00
2023-05-22T02:19:09.140Z,94883.00
2023-05-22T02:20:09.086Z,94881.00
2023-05-22T02:21:09.067Z,94879.00
2023-05-22T02:22:09.045Z,94877.00
2023-05-22T02:23:09.057Z,94879.00
2023-05-22T02:24:09.052Z,94879.00
2023-05-22T02:25:09.031Z,94875.00
2023-05-22T02:26:09.040Z,94877.00
2023-05-22T02:27:09.017Z,94875.00
2023-05-22T02:28:09.048Z,94875.00
2023-05-22T02:29:09.031Z,94871.00
2023-05-22T02:30:09.035Z,94869.00
2023-05-22T02:31:09.035Z,94869.00
2023-05-22T02:32:09.016Z,94867.00
2023-05-22T02:33:09.030Z,94873.00
2023-05-22T02:34:08.966Z,94865.00
2023-05-22T02:35:08.989Z,94867.00
2023-05-22T02:36:08.986Z,94871.00
2023-05-22T02:37:08.983Z,94873.00
2023-05-22T02:38:08.940Z,94873.00
2023-05-22T02:39:08.964Z,94877.00
2023-05-22T02:40:08.942Z,94877.00
2023-05-22T02:41:08.943Z,94879.00
2023-05-22T02:42:08.956Z,94883.00
2023-05-22T02:43:08.921Z,94881.00
2023-05-22T02:44:08.936Z,94885.00
2023-05-22T02:45:08.922Z,94883.00
2023-05-22T02:46:08.959Z,94883.00
2023-05-22T02:47:08.898Z,94881.00
2023-05-22T02:48:08.919Z,94883.00
2023-05-22T02:49:08.922Z,94881.00
2023-05-22T02:50:08.866Z,94883.00
2023-05-22T02:51:08.857Z,94883.00
2023-05-22T02:52:08.852Z,94883.00
2023-05-22T02:53:08.841Z,94883.00
2023-05-22T02:54:08.852Z,94881.00
2023-05-22T02:55:08.858Z,94883.00
2023-05-22T02:56:08.840Z,94883.00
2023-05-22T02:57:08.824Z,94883.00
2023-05-22T02:58:08.862Z,94881.00
2023-05-22T02:59:08.799Z,94883.00
2023-05-22T03:00:08.846Z,94889.00
2023-05-22T03:01:08.806Z,94883.00
2023-05-22T03:02:08.831Z,94887.00
2023-05-22T03:03:08.927Z,94889.00
2023-05-22T03:04:08.968Z,94889.00
2023-05-22T03:05:08.790Z,94891.00
2023-05-22T03:06:08.784Z,94889.00
2023-05-22T03:07:08.779Z,94891.00
2023-05-22T03:08:08.762Z,94889.00
2023-05-22T03:09:08.766Z,94891.00
2023-05-22T03:10:08.752Z,94891.00
2023-05-22T03:11:08.741Z,94895.00
2023-05-22T03:12:08.745Z,94895.00
2023-05-22T03:13:08.762Z,94893.00
2023-05-22T03:14:08.732Z,94893.00
2023-05-22T03:15:08.717Z,94899.00
2023-05-22T03:16:08.736Z,94895.00
2023-05-22T03:17:08.719Z,94895.00
2023-05-22T03:18:08.743Z,94897.00
2023-05-22T03:19:08.762Z,94897.00
2023-05-22T03:20:08.721Z,94899.00
2023-05-22T03:21:08.695Z,94895.00
2023-05-22T03:22:08.679Z,94897.00
2023-05-22T03:23:08.686Z,94891.00
2023-05-22T03:24:08.680Z,94895.00
2023-05-22T03:25:08.644Z,94897.00
2023-05-22T03:26:08.664Z,94893.00
2023-05-22T03:27:08.643Z,94889.00
2023-05-22T03:28:08.655Z,94891.00
2023-05-22T03:29:08.692Z,94887.00
2023-05-22T03:30:08.608Z,94889.00
2023-05-22T03:31:08.614Z,94891.00
2023-05-22T03:32:08.601Z,94889.00
2023-05-22T03:33:08.780Z,94889.00
2023-05-22T03:34:08.730Z,94891.00
2023-05-22T03:35:08.696Z,94889.00
2023-05-22T03:36:08.560Z,94891.00
2023-05-22T03:37:08.560Z,94891.00
2023-05-22T03:38:08.577Z,94887.00
2023-05-22T03:39:08.585Z,94887.00
2023-05-22T03:40:08.565Z,94887.00
2023-05-22T03:41:08.539Z,94887.00
2023-05-22T03:42:08.537Z,94885.00
2023-05-22T03:43:08.546Z,94881.00
2023-05-22T03:44:08.553Z,94881.00
2023-05-22T03:45:08.527Z,94879.00
2023-05-22T03:46:08.530Z,94879.00
2023-05-22T03:47:08.506Z,94875.00
2023-05-22T03:48:08.565Z,94875.00
2023-05-22T03:49:08.479Z,94875.00
2023-05-22T03:50:08.519Z,94879.00
2023-05-22T03:51:08.463Z,94881.00
2023-05-22T03:52:08.453Z,94879.00
2023-05-22T03:53:08.481Z,94881.00
2023-05-22T03:54:08.469Z,94883.00
2023-05-22T03:55:08.457Z,94885.00
2023-05-22T03:56:08.449Z,94887.00
2023-05-22T03:57:08.521Z,94885.00
2023-05-22T03:58:08.412Z,94891.00
2023-05-22T03:59:08.462Z,94891.00
2023-05-22T04:00:08.414Z,94889.00
2023-05-22T04:01:08.456Z,94895.00
2023-05-22T04:02:08.578Z,94893.00
2023-05-22T04:03:08.672Z,94895.00
2023-05-22T04:04:08.530Z,94895.00
2023-05-22T04:05:08.673Z,94895.00
2023-05-22T04:06:08.526Z,94895.00
2023-05-22T04:07:08.685Z,94895.00
2023-05-22T04:08:08.532Z,94897.00
2023-05-22T04:09:08.538Z,94891.00
2023-05-22T04:10:08.534Z,94893.00
2023-05-22T04:11:08.529Z,94893.00
2023-05-22T04:12:08.547Z,94893.00
2023-05-22T04:13:08.514Z,94893.00
2023-05-22T04:14:08.516Z,94895.00
2023-05-22T04:15:08.539Z,94891.00
2023-05-22T04:16:08.670Z,94889.00
2023-05-22T04:17:08.584Z,94889.00
2023-05-22T04:18:08.646Z,94887.00
2023-05-22T04:19:08.644Z,94891.00
2023-05-22T04:20:08.652Z,94891.00
2023-05-22T04:21:08.688Z,94891.00
2023-05-22T04:22:08.701Z,94895.00
2023-05-22T04:23:08.727Z,94895.00
2023-05-22T04:24:08.754Z,94895.00
2023-05-22T04:25:08.776Z,94895.00
2023-05-22T04:26:08.898Z,94899.00
2023-05-22T04:27:08.821Z,94899.00
2023-05-22T04:28:08.854Z,94902.00
2023-05-22T04:29:08.923Z,94902.00
2023-05-22T04:30:08.909Z,94904.00
2023-05-22T04:31:08.974Z,94904.00
2023-05-22T04:32:09.001Z,94904.00
2023-05-22T04:33:09.057Z,94904.00
2023-05-22T04:34:09.028Z,94902.00
2023-05-22T04:35:09.098Z,94904.00
2023-05-22T04:36:11.530Z,94906.00
2023-05-22T04:37:09.104Z,94908.00
2023-05-22T04:38:09.106Z,94908.00
2023-05-22T04:39:09.083Z,94906.00
2023-05-22T04:40:09.101Z,94908.00
2023-05-22T04:41:09.063Z,94908.00
2023-05-22T04:42:09.066Z,94910.00
2023-05-22T04:43:09.105Z,94910.00
2023-05-22T04:44:09.053Z,94908.00
2023-05-22T04:45:09.060Z,94910.00
2023-05-22T04:46:09.087Z,94914.00
2023-05-22T04:47:09.101Z,94916.00
2023-05-22T04:48:09.093Z,94914.00
2023-05-22T04:49:09.030Z,94912.00
2023-05-22T04:50:09.031Z,94912.00
2023-05-22T04:51:09.028Z,94912.00
2023-05-22T04:52:08.998Z,94910.00
2023-05-22T04:53:09.022Z,94912.00
2023-05-22T04:54:09.016Z,94912.00
2023-05-22T04:55:08.980Z,94912.00
2023-05-22T04:56:09.094Z,94914.00
2023-05-22T04:57:08.959Z,94916.00
2023-05-22T04:58:09.012Z,94914.00
2023-05-22T04:59:09.262Z,94916.00
2023-05-22T05:00:08.972Z,94918.00
2023-05-22T05:01:16.004Z,94918.00
2023-05-22T05:02:08.956Z,94914.00
2023-05-22T05:03:09.042Z,94914.00
2023-05-22T05:04:09.004Z,94916.00
2023-05-22T05:05:08.902Z,94918.00
2023-05-22T05:06:08.927Z,94914.00
2023-05-22T05:07:08.896Z,94916.00
2023-05-22T05:08:08.916Z,94918.00
2023-05-22T05:09:08.889Z,94916.00
2023-05-22T05:10:08.890Z,94914.00
2023-05-22T05:11:08.891Z,94914.00
2023-05-22T05:12:08.858Z,94910.00
2023-05-22T05:13:08.879Z,94910.00
2023-05-22T05:14:08.830Z,94916.00
2023-05-22T05:15:08.834Z,94916.00
2023-05-22T05:16:08.870Z,94914.00
2023-05-22T05:17:08.822Z,94916.00
2023-05-22T05:18:08.867Z,94916.00
2023-05-22T05:19:08.865Z,94914.00
2023-05-22T05:20:08.837Z,94916.00
2023-05-22T05:21:08.806Z,94918.00
2023-05-22T05:22:08.792Z,94916.00
2023-05-22T05:23:08.787Z,94916.00
2023-05-22T05:24:08.813Z,94920.00
2023-05-22T05:25:11.469Z,94920.00
2023-05-22T05:26:08.779Z,94922.00
2023-05-22T05:27:08.922Z,94920.00
2023-05-22T05:28:08.717Z,94920.00
2023-05-22T05:29:08.750Z,94920.00
2023-05-22T05:30:08.790Z,94920.00
2023-05-22T05:31:08.731Z,94920.00
2023-05-22T05:32:08.814Z,94918.00
2023-05-22T05:33:08.801Z,94916.00
2023-05-22T05:34:08.833Z,94920.00
2023-05-22T05:35:08.691Z,94918.00
2023-05-22T05:36:08.686Z,94916.00
2023-05-22T05:37:08.694Z,94916.00
2023-05-22T05:38:08.703Z,94920.00
2023-05-22T05:39:08.881Z,94920.00
2023-05-22T05:40:08.687Z,94920.00
2023-05-22T05:41:08.655Z,94918.00
2023-05-22T05:42:08.649Z,94916.00
2023-05-22T05:43:09.320Z,94918.00
2023-05-22T05:44:08.618Z,94918.00
2023-05-22T05:45:08.646Z,94918.00
2023-05-22T05:46:15.716Z,94918.00
2023-05-22T05:47:08.607Z,94916.00
2023-05-22T05:48:08.676Z,94914.00
2023-05-22T05:49:08.926Z,94914.00
2023-05-22T05:50:08.610Z,94914.00
2023-05-22T05:51:08.624Z,94914.00
2023-05-22T05:52:08.563Z,94916.00
2023-05-22T05:53:08.591Z,94914.00
2023-05-22T05:54:08.882Z,94918.00
2023-05-22T05:55:08.617Z,94914.00
2023-05-22T05:56:08.572Z,94916.00
2023-05-22T05:57:08.561Z,94914.00
2023-05-22T05:58:08.568Z,94914.00
2023-05-22T05:59:08.995Z,94918.00
2023-05-22T06:00:08.598Z,94918.00
2023-05-22T06:01:08.579Z,94924.00
2023-05-22T06:02:08.588Z,94922.00
2023-05-22T06:03:08.678Z,94926.00
2023-05-22T06:04:08.514Z,94926.00
2023-05-22T06:05:08.525Z,94924.00
2023-05-22T06:06:08.521Z,94926.00
2023-05-22T06:07:08.499Z,94926.00
2023-05-22T06:08:08.511Z,94924.00
2023-05-22T06:09:08.600Z,94922.00
2023-05-22T06:10:08.648Z,94922.00
2023-05-22T06:11:08.638Z,94924.00
2023-05-22T06:12:08.707Z,94924.00
2023-05-22T06:13:08.707Z,94922.00
2023-05-22T06:14:08.870Z,94924.00
2023-05-22T06:15:08.832Z,94922.00
2023-05-22T06:16:08.893Z,94920.00
2023-05-22T06:17:08.915Z,94918.00
2023-05-22T06:18:08.998Z,94922.00
2023-05-22T06:19:09.050Z,94920.00
2023-05-22T06:20:09.472Z,94920.00
2023-05-22T06:21:09.077Z,94922.00
2023-05-22T06:22:09.126Z,94920.00
2023-05-22T06:23:09.126Z,94920.00
2023-05-22T06:24:09.190Z,94920.00
2023-05-22T06:25:09.272Z,94916.00
2023-05-22T06:26:09.264Z,94918.00
2023-05-22T06:27:09.279Z,94916.00
2023-05-22T06:28:09.336Z,94918.00
2023-05-22T06:29:09.397Z,94914.00
2023-05-22T06:30:09.417Z,94916.00
2023-05-22T06:31:09.427Z,94916.00
2023-05-22T06:32:09.595Z,94914.00
2023-05-22T06:33:09.591Z,94916.00
2023-05-22T06:34:10.002Z,94914.00
2023-05-22T06:35:09.609Z,94916.00
2023-05-22T06:36:09.635Z,94912.00
2023-05-22T06:37:09.652Z,94914.00
2023-05-22T06:38:09.722Z,94914.00
2023-05-22T06:39:09.752Z,94912.00
2023-05-22T06:40:09.960Z,94912.00
2023-05-22T06:41:09.780Z,94914.00
2023-05-22T06:42:09.823Z,94914.00
2023-05-22T06:43:09.818Z,94912.00
2023-05-22T06:44:09.905Z,94914.00
2023-05-22T06:45:09.887Z,94912.00
2023-05-22T06:46:09.956Z,94912.00
2023-05-22T06:47:09.950Z,94910.00
2023-05-22T06:48:10.024Z,94910.00
2023-05-22T06:49:10.006Z,94908.00
2023-05-22T06:50:10.405Z,94908.00
2023-05-22T06:51:10.032Z,94906.00
2023-05-22T06:52:10.020Z,94902.00
2023-05-22T06:53:10.071Z,94902.00
2023-05-22T06:54:10.067Z,94902.00
2023-05-22T06:55:10.123Z,94906.00
2023-05-22T06:56:10.221Z,94902.00
2023-05-22T06:57:10.260Z,94900.00
2023-05-22T06:58:10.261Z,94899.00
2023-05-22T06:59:10.261Z,94899.00
2023-05-22T07:00:10.300Z,94899.00
2023-05-22T07:01:10.420Z,94897.00
2023-05-22T07:02:10.455Z,94899.00
2023-05-22T07:03:10.478Z,94897.00
2023-05-22T07:04:10.509Z,94895.00
2023-05-22T07:05:10.524Z,94893.00
2023-05-22T07:06:10.583Z,94895.00
2023-05-22T07:07:11.494Z,94893.00
2023-05-22T07:08:10.622Z,94891.00
2023-05-22T07:09:10.668Z,94889.00
2023-05-22T07:10:10.747Z,94887.00
2023-05-22T07:11:10.812Z,94889.00
2023-05-22T07:12:10.793Z,94887.00
2023-05-22T07:13:10.833Z,94889.00
2023-05-22T07:14:10.904Z,94885.00
2023-05-22T07:15:10.982Z,94885.00
2023-05-22T07:16:10.959Z,94887.00
2023-05-22T07:17:13.022Z,94887.00
2023-05-22T07:18:11.100Z,94883.00
2023-05-22T07:19:11.168Z,94885.00
2023-05-22T07:20:11.093Z,94883.00
2023-05-22T07:21:11.185Z,94879.00
2023-05-22T07:22:11.241Z,94879.00
2023-05-22T07:23:11.866Z,94879.00
2023-05-22T07:24:11.338Z,94879.00
2023-05-22T07:25:11.417Z,94877.00
2023-05-22T07:26:11.459Z,94875.00
2023-05-22T07:27:11.520Z,94873.00
2023-05-22T07:28:11.570Z,94873.00
2023-05-22T07:29:11.652Z,94871.00
2023-05-22T07:30:11.708Z,94873.00
2023-05-22T07:31:11.783Z,94871.00
2023-05-22T07:32:11.763Z,94873.00
2023-05-22T07:33:12.370Z,94873.00
2023-05-22T07:34:11.836Z,94873.00
2023-05-22T07:35:11.843Z,94875.00
2023-05-22T07:36:11.787Z,94873.00
2023-05-22T07:37:11.797Z,94871.00
2023-05-22T07:38:11.779Z,94873.00
2023-05-22T07:39:11.814Z,94869.00
2023-05-22T07:40:11.796Z,94869.00
2023-05-22T07:41:12.391Z,94867.00
2023-05-22T07:42:11.807Z,94865.00
2023-05-22T07:43:11.837Z,94861.00
2023-05-22T07:44:11.867Z,94861.00
2023-05-22T07:45:12.421Z,94861.00
2023-05-22T07:46:12.015Z,94857.00
2023-05-22T07:47:12.071Z,94857.00
2023-05-22T07:48:12.144Z,94855.00
2023-05-22T07:49:12.138Z,94857.00
2023-05-22T07:50:12.176Z,94857.00
2023-05-22T07:51:12.335Z,94857.00
2023-05-22T07:52:12.255Z,94852.00
2023-05-22T07:53:12.308Z,94850.00
2023-05-22T07:54:12.421Z,94850.00
2023-05-22T07:55:12.454Z,94850.00
2023-05-22T07:56:12.427Z,94846.00
2023-05-22T07:57:12.472Z,94846.00
2023-05-22T07:58:12.481Z,94846.00
2023-05-22T07:59:12.539Z,94844.00
2023-05-22T08:00:12.575Z,94840.00
2023-05-22T08:01:12.606Z,94840.00
2023-05-22T08:02:12.652Z,94842.00
2023-05-22T08:03:12.670Z,94838.00
2023-05-22T08:04:12.777Z,94840.00
2023-05-22T08:05:13.057Z,94838.00
2023-05-22T08:06:12.691Z,94838.00
2023-05-22T08:07:12.846Z,94838.00
2023-05-22T08:08:12.755Z,94834.00
2023-05-22T08:09:12.793Z,94834.00
2023-05-22T08:10:12.950Z,94828.00
2023-05-22T08:11:12.798Z,94832.00
2023-05-22T08:12:12.844Z,94828.00
2023-05-22T08:13:12.813Z,94828.00
2023-05-22T08:14:12.858Z,94828.00
2023-05-22T08:15:12.947Z,94824.00
2023-05-22T08:16:12.852Z,94826.00
2023-05-22T08:17:13.049Z,94826.00
2023-05-22T08:18:12.907Z,94828.00
2023-05-22T08:19:12.925Z,94824.00
2023-05-22T08:20:12.983Z,94824.00
2023-05-22T08:21:12.879Z,94824.00
2023-05-22T08:22:12.852Z,94820.00
2023-05-22T08:23:12.994Z,94820.00
2023-05-22T08:24:12.801Z,94820.00
2023-05-22T08:25:12.830Z,94820.00
2023-05-22T08:26:12.924Z,94818.00
2023-05-22T08:27:12.854Z,94820.00
2023-05-22T08:28:12.858Z,94818.00
2023-05-22T08:29:12.858Z,94818.00
2023-05-22T08:30:12.861Z,94820.00
2023-05-22T08:31:12.996Z,94816.00
2023-05-22T08:32:12.905Z,94816.00
2023-05-22T08:33:12.959Z,94816.00
2023-05-22T08:34:12.913Z,94816.00
2023-05-22T08:35:12.964Z,94816.00
2023-05-22T08:36:12.933Z,94813.00
2023-05-22T08:37:12.956Z,94813.00
2023-05-22T08:38:12.986Z,94811.00
2023-05-22T08:39:12.948Z,94811.00
2023-05-22T08:40:12.975Z,94807.00
2023-05-22T08:41:12.991Z,94809.00
2023-05-22T08:42:12.957Z,94807.00
2023-05-22T08:43:12.988Z,94805.00
2023-05-22T08:44:12.987Z,94799.00
2023-05-22T08:45:13.018Z,94799.00
2023-05-22T08:46:13.963Z,94797.00
2023-05-22T08:47:13.050Z,94795.00
2023-05-22T08:48:13.002Z,94795.00
2023-05-22T08:49:13.026Z,94791.00
2023-05-22T08:50:13.040Z,94793.00
2023-05-22T08:51:13.454Z,94793.00
2023-05-22T08:52:13.092Z,94791.00
2023-05-22T08:53:13.069Z,94785.00
2023-05-22T08:54:13.067Z,94787.00
2023-05-22T08:55:13.122Z,94787.00
2023-05-22T08:56:13.455Z,94789.00
2023-05-22T08:57:13.068Z,94785.00
2023-05-22T08:58:13.073Z,94783.00
2023-05-22T08:59:13.099Z,94783.00
2023-05-22T09:00:13.108Z,94783.00
2023-05-22T09:01:13.278Z,94781.00
2023-05-22T09:02:13.245Z,94781.00
2023-05-22T09:03:13.419Z,94777.00
2023-05-22T09:04:13.422Z,94779.00
2023-05-22T09:05:13.460Z,94777.00
2023-05-22T09:06:13.560Z,94777.00
2023-05-22T09:07:13.565Z,94775.00
2023-05-22T09:08:20.330Z,94775.00
2023-05-22T09:09:14.643Z,94773.00
2023-05-22T09:10:13.626Z,94773.00
2023-05-22T09:11:13.650Z,94773.00
2023-05-22T09:12:13.617Z,94771.00
2023-05-22T09:13:13.575Z,94767.00
2023-05-22T09:14:13.600Z,94767.00
2023-05-22T09:15:13.589Z,94767.00
2023-05-22T09:16:13.592Z,94764.00
2023-05-22T09:17:13.664Z,94762.00
2023-05-22T09:18:13.736Z,94766.00
2023-05-22T09:19:13.794Z,94762.00
2023-05-22T09:20:13.761Z,94762.00
2023-05-22T09:21:25.912Z,94760.00
2023-05-22T09:22:14.825Z,94762.00
2023-05-22T09:23:13.824Z,94758.00
2023-05-22T09:24:13.857Z,94760.00
2023-05-22T09:25:13.799Z,94760.00
2023-05-22T09:26:13.809Z,94758.00
2023-05-22T09:27:13.766Z,94760.00
2023-05-22T09:28:13.786Z,94760.00
2023-05-22T09:29:13.766Z,94758.00
2023-05-22T09:30:13.762Z,94756.00
2023-05-22T09:31:14.082Z,94756.00
2023-05-22T09:32:13.755Z,94754.00
2023-05-22T09:33:13.790Z,94754.00
2023-05-22T09:34:13.744Z,94750.00
2023-05-22T09:35:13.713Z,94750.00
2023-05-22T09:36:13.991Z,94748.00
2023-05-22T09:37:13.804Z,94750.00
2023-05-22T09:38:13.878Z,94744.00
2023-05-22T09:39:13.881Z,94748.00
2023-05-22T09:40:13.901Z,94746.00
2023-05-22T09:41:13.993Z,94744.00
2023-05-22T09:42:13.997Z,94746.00
2023-05-22T09:43:14.113Z,94744.00
2023-05-22T09:44:14.151Z,94740.00
2023-05-22T09:45:14.122Z,94738.00
2023-05-22T09:46:14.178Z,94742.00
2023-05-22T09:47:14.225Z,94740.00
2023-05-22T09:48:14.245Z,94736.00
2023-05-22T09:49:16.423Z,94738.00
2023-05-22T09:50:14.304Z,94736.00
2023-05-22T09:51:14.504Z,94734.00
2023-05-22T09:52:14.268Z,94732.00
2023-05-22T09:53:14.251Z,94732.00
2023-05-22T09:54:14.282Z,94728.00
2023-05-22T09:55:14.289Z,94728.00
2023-05-22T09:56:15.887Z,94728.00
2023-05-22T09:57:14.221Z,94728.00
2023-05-22T09:58:14.217Z,94730.00
2023-05-22T09:59:14.221Z,94728.00
2023-05-22T10:00:14.239Z,94728.00
2023-05-22T10:01:14.513Z,94727.00
2023-05-22T10:02:14.224Z,94728.00
2023-05-22T10:03:14.205Z,94727.00
2023-05-22T10:04:14.427Z,94725.00
2023-05-22T10:05:14.224Z,94727.00
2023-05-22T10:06:14.488Z,94722.00
2023-05-22T10:07:14.180Z,94725.00
2023-05-22T10:08:14.173Z,94725.00
2023-05-22T10:09:14.166Z,94719.00
2023-05-22T10:10:14.182Z,94720.00
2023-05-22T10:11:14.153Z,94717.00
2023-05-22T10:12:14.122Z,94715.00
2023-05-22T10:13:14.127Z,94717.00
2023-05-22T10:14:14.105Z,94715.00
2023-05-22T10:15:14.248Z,94715.00
2023-05-22T10:16:14.122Z,94711.00
2023-05-22T10:17:14.147Z,94709.00
2023-05-22T10:18:14.117Z,94707.00
2023-05-22T10:19:14.153Z,94705.00
2023-05-22T10:20:14.087Z,94699.00
2023-05-22T10:21:14.115Z,94701.00
2023-05-22T10:22:14.130Z,94697.00
2023-05-22T10:23:14.104Z,94699.00
2023-05-22T10:24:14.079Z,94699.00
2023-05-22T10:25:14.077Z,94699.00
2023-05-22T10:26:14.069Z,94697.00
2023-05-22T10:27:14.515Z,94693.00
2023-05-22T10:28:14.032Z,94697.00
2023-05-22T10:29:14.035Z,94695.00
2023-05-22T10:30:14.048Z,94695.00
2023-05-22T10:31:14.120Z,94691.00
2023-05-22T10:32:14.504Z,94689.00
2023-05-22T10:33:14.161Z,94691.00
2023-05-22T10:34:14.006Z,94693.00
2023-05-22T10:35:13.986Z,94693.00
2023-05-22T10:36:13.988Z,94693.00
2023-05-22T10:37:17.519Z,94689.00
2023-05-22T10:38:13.963Z,94685.00
2023-05-22T10:39:13.960Z,94685.00
2023-05-22T10:40:13.975Z,94683.00
2023-05-22T10:41:13.982Z,94681.00
2023-05-22T10:42:14.014Z,94683.00
2023-05-22T10:43:13.977Z,94681.00
2023-05-22T10:44:13.931Z,94674.00
2023-05-22T10:45:13.977Z,94672.00
2023-05-22T10:46:13.968Z,94670.00
2023-05-22T10:47:14.083Z,94670.00
2023-05-22T10:48:13.911Z,94668.00
2023-05-22T10:49:13.912Z,94666.00
2023-05-22T10:50:13.940Z,94664.00
2023-05-22T10:51:13.922Z,94660.00
2023-05-22T10:52:13.901Z,94658.00
2023-05-22T10:53:13.872Z,94656.00
2023-05-22T10:54:13.955Z,94652.00
2023-05-22T10:55:13.864Z,94654.00
2023-05-22T10:56:13.905Z,94654.00
2023-05-22T10:57:14.054Z,94652.00
2023-05-22T10:58:13.884Z,94650.00
2023-05-22T10:59:13.900Z,94648.00
2023-05-22T11:00:13.904Z,94648.00
2023-05-22T11:01:14.032Z,94646.00
2023-05-22T11:02:14.114Z,94644.00
2023-05-22T11:03:18.420Z,94646.00
2023-05-22T11:04:14.917Z,94648.00
2023-05-22T11:05:13.919Z,94642.00
2023-05-22T11:06:13.868Z,94642.00
2023-05-22T11:07:13.864Z,94642.00
2023-05-22T11:08:13.827Z,94644.00
2023-05-22T11:09:13.840Z,94636.00
2023-05-22T11:10:13.841Z,94638.00
2023-05-22T11:11:13.809Z,94638.00
2023-05-22T11:12:14.040Z,94634.00
2023-05-22T11:13:13.803Z,94634.00
2023-05-22T11:14:13.805Z,94634.00
2023-05-22T11:15:13.840Z,94634.00
2023-05-22T11:16:13.800Z,94630.00
2023-05-22T11:17:14.133Z,94628.00
2023-05-22T11:18:13.893Z,94630.00
2023-05-22T11:19:23.266Z,94627.00
2023-05-22T11:20:14.785Z,94627.00
2023-05-22T11:21:13.842Z,94627.00
2023-05-22T11:22:13.796Z,94625.00
2023-05-22T11:23:13.806Z,94625.00
2023-05-22T11:24:13.753Z,94623.00
2023-05-22T11:25:13.742Z,94625.00
2023-05-22T11:26:13.765Z,94623.00
2023-05-22T11:27:13.756Z,94619.00
2023-05-22T11:28:14.039Z,94619.00
2023-05-22T11:29:13.722Z,94619.00
2023-05-22T11:30:13.709Z,94619.00
2023-05-22T11:31:13.745Z,94619.00
2023-05-22T11:32:13.702Z,94619.00
2023-05-22T11:33:14.087Z,94617.00
2023-05-22T11:34:13.718Z,94619.00
2023-05-22T11:35:13.777Z,94615.00
2023-05-22T11:36:13.672Z,94617.00
2023-05-22T11:37:13.656Z,94617.00
2023-05-22T11:38:14.016Z,94611.00
2023-05-22T11:39:13.650Z,94609.00
2023-05-22T11:40:13.662Z,94611.00
2023-05-22T11:41:13.718Z,94609.00
2023-05-22T11:42:14.812Z,94603.00
2023-05-22T11:43:13.786Z,94605.00
2023-05-22T11:44:13.801Z,94605.00